sensor_id;sensor_type;location;lat;lon;timestamp;P1;durP1;ratioP1;P2;durP2;ratioP2
35522;SDS011;61478;50.820;4.330;2023-05-17T00:01:50;15.85;;;3.75;;
35522;SDS011;61478;50.820;4.330;2023-05-17T00:04:16;16.13;;;4.25;;
35522;SDS011;61478;50.820;4.330;2023-05-17T00:06:43;18.30;;;4.72;;
35522;SDS011;61478;50.820;4.330;2023-05-17T00:09:09;12.90;;;4.13;;
35522;SDS011;61478;50.820;4.330;2023-05-17T00:11:36;16.25;;;4.82;;
35522;SDS011;61478;50.820;4.330;2023-05-17T00:14:02;18.00;;;4.90;;
35522;SDS011;61478;50.820;4.330;2023-05-17T00:16:28;17.10;;;4.50;;
35522;SDS011;61478;50.820;4.330;2023-05-17T00:18:54;16.88;;;4.78;;
35522;SDS011;61478;50.820;4.330;2023-05-17T00:21:23;16.67;;;4.72;;
35522;SDS011;61478;50.820;4.330;2023-05-17T00:23:50;22.70;;;6.97;;
35522;SDS011;61478;50.820;4.330;2023-05-17T00:26:16;14.02;;;4.25;;
35522;SDS011;61478;50.820;4.330;2023-05-17T00:28:42;16.52;;;4.75;;
35522;SDS011;61478;50.820;4.330;2023-05-17T00:31:08;15.98;;;4.25;;
35522;SDS011;61478;50.820;4.330;2023-05-17T00:33:34;14.25;;;4.78;;
35522;SDS011;61478;50.820;4.330;2023-05-17T00:36:01;20.40;;;4.88;;
35522;SDS011;61478;50.820;4.330;2023-05-17T00:38:28;21.90;;;5.30;;
35522;SDS011;61478;50.820;4.330;2023-05-17T00:40:57;16.27;;;5.18;;
35522;SDS011;61478;50.820;4.330;2023-05-17T00:43:23;16.40;;;4.55;;
35522;SDS011;61478;50.820;4.330;2023-05-17T00:45:50;24.02;;;6.78;;
35522;SDS011;61478;50.820;4.330;2023-05-17T00:48:17;14.70;;;4.32;;
35522;SDS011;61478;50.820;4.330;2023-05-17T00:50:45;22.65;;;4.82;;
35522;SDS011;61478;50.820;4.330;2023-05-17T00:53:15;15.68;;;5.25;;
35522;SDS011;61478;50.820;4.330;2023-05-17T00:55:44;16.27;;;5.75;;
35522;SDS011;61478;50.820;4.330;2023-05-17T00:58:11;17.38;;;5.55;;
35522;SDS011;61478;50.820;4.330;2023-05-17T01:00:47;20.95;;;5.70;;
35522;SDS011;61478;50.820;4.330;2023-05-17T01:03:15;21.17;;;5.75;;
35522;SDS011;61478;50.820;4.330;2023-05-17T01:08:26;17.20;;;5.40;;
35522;SDS011;61478;50.820;4.330;2023-05-17T01:11:41;18.55;;;5.72;;
35522;SDS011;61478;50.820;4.330;2023-05-17T01:13:47;22.98;;;6.68;;
35522;SDS011;61478;50.820;4.330;2023-05-17T01:16:55;18.63;;;5.75;;
35522;SDS011;61478;50.820;4.330;2023-05-17T01:28:09;22.48;;;5.75;;
35522;SDS011;61478;50.820;4.330;2023-05-17T01:30:36;19.25;;;6.57;;
35522;SDS011;61478;50.820;4.330;2023-05-17T01:33:04;20.10;;;6.13;;
35522;SDS011;61478;50.820;4.330;2023-05-17T01:35:31;19.45;;;5.43;;
35522;SDS011;61478;50.820;4.330;2023-05-17T01:37:59;20.02;;;6.60;;
35522;SDS011;61478;50.820;4.330;2023-05-17T01:40:25;17.10;;;6.88;;
35522;SDS011;61478;50.820;4.330;2023-05-17T01:43:25;20.05;;;6.47;;
35522;SDS011;61478;50.820;4.330;2023-05-17T01:48:48;22.48;;;6.68;;
35522;SDS011;61478;50.820;4.330;2023-05-17T01:51:25;24.15;;;6.68;;
35522;SDS011;61478;50.820;4.330;2023-05-17T01:53:58;15.70;;;6.18;;
35522;SDS011;61478;50.820;4.330;2023-05-17T01:56:26;19.48;;;5.75;;
35522;SDS011;61478;50.820;4.330;2023-05-17T01:58:57;15.77;;;5.22;;
35522;SDS011;61478;50.820;4.330;2023-05-17T02:01:27;15.27;;;5.32;;
35522;SDS011;61478;50.820;4.330;2023-05-17T02:03:55;21.08;;;6.40;;
35522;SDS011;61478;50.820;4.330;2023-05-17T02:06:21;19.80;;;5.75;;
35522;SDS011;61478;50.820;4.330;2023-05-17T02:08:47;14.88;;;5.53;;
35522;SDS011;61478;50.820;4.330;2023-05-17T02:11:13;23.15;;;6.60;;
35522;SDS011;61478;50.820;4.330;2023-05-17T02:13:42;21.17;;;6.38;;
35522;SDS011;61478;50.820;4.330;2023-05-17T02:16:07;12.95;;;6.40;;
35522;SDS011;61478;50.820;4.330;2023-05-17T02:18:34;17.77;;;6.65;;
35522;SDS011;61478;50.820;4.330;2023-05-17T02:21:02;17.20;;;6.20;;
35522;SDS011;61478;50.820;4.330;2023-05-17T02:23:28;20.50;;;6.90;;
35522;SDS011;61478;50.820;4.330;2023-05-17T02:25:54;18.83;;;5.90;;
35522;SDS011;61478;50.820;4.330;2023-05-17T02:28:20;22.88;;;7.43;;
35522;SDS011;61478;50.820;4.330;2023-05-17T02:30:46;19.00;;;6.75;;
35522;SDS011;61478;50.820;4.330;2023-05-17T02:33:12;18.17;;;6.03;;
35522;SDS011;61478;50.820;4.330;2023-05-17T02:35:38;16.48;;;6.28;;
35522;SDS011;61478;50.820;4.330;2023-05-17T02:38:04;16.88;;;6.10;;
35522;SDS011;61478;50.820;4.330;2023-05-17T02:40:30;22.25;;;7.38;;
35522;SDS011;61478;50.820;4.330;2023-05-17T02:42:56;28.17;;;7.05;;
35522;SDS011;61478;50.820;4.330;2023-05-17T02:45:23;19.42;;;7.03;;
35522;SDS011;61478;50.820;4.330;2023-05-17T02:47:49;22.13;;;6.47;;
35522;SDS011;61478;50.820;4.330;2023-05-17T02:50:15;21.92;;;7.32;;
35522;SDS011;61478;50.820;4.330;2023-05-17T02:52:41;21.35;;;6.70;;
35522;SDS011;61478;50.820;4.330;2023-05-17T02:55:07;15.65;;;6.70;;
35522;SDS011;61478;50.820;4.330;2023-05-17T02:57:36;25.33;;;7.55;;
35522;SDS011;61478;50.820;4.330;2023-05-17T03:00:21;17.10;;;7.28;;
35522;SDS011;61478;50.820;4.330;2023-05-17T03:03:13;16.50;;;7.25;;
35522;SDS011;61478;50.820;4.330;2023-05-17T03:05:40;16.92;;;6.78;;
35522;SDS011;61478;50.820;4.330;2023-05-17T03:08:36;21.98;;;7.65;;
35522;SDS011;61478;50.820;4.330;2023-05-17T03:11:02;19.50;;;7.05;;
35522;SDS011;61478;50.820;4.330;2023-05-17T03:13:34;19.67;;;7.20;;
35522;SDS011;61478;50.820;4.330;2023-05-17T03:16:00;19.05;;;7.20;;
35522;SDS011;61478;50.820;4.330;2023-05-17T03:18:26;25.90;;;7.75;;
35522;SDS011;61478;50.820;4.330;2023-05-17T03:24:06;13.90;;;7.00;;
35522;SDS011;61478;50.820;4.330;2023-05-17T03:26:41;26.70;;;8.02;;
35522;SDS011;61478;50.820;4.330;2023-05-17T03:29:07;16.42;;;7.47;;
35522;SDS011;61478;50.820;4.330;2023-05-17T03:31:33;19.67;;;7.55;;
35522;SDS011;61478;50.820;4.330;2023-05-17T03:33:59;25.80;;;8.50;;
35522;SDS011;61478;50.820;4.330;2023-05-17T03:36:29;23.58;;;8.63;;
35522;SDS011;61478;50.820;4.330;2023-05-17T03:38:58;18.10;;;7.78;;
35522;SDS011;61478;50.820;4.330;2023-05-17T03:41:24;24.02;;;8.13;;
35522;SDS011;61478;50.820;4.330;2023-05-17T03:43:50;23.13;;;8.70;;
35522;SDS011;61478;50.820;4.330;2023-05-17T03:46:16;22.33;;;8.13;;
35522;SDS011;61478;50.820;4.330;2023-05-17T03:48:42;22.17;;;9.00;;
35522;SDS011;61478;50.820;4.330;2023-05-17T03:51:08;23.35;;;7.68;;
35522;SDS011;61478;50.820;4.330;2023-05-17T03:53:37;23.75;;;8.43;;
35522;SDS011;61478;50.820;4.330;2023-05-17T03:56:07;22.52;;;9.07;;
35522;SDS011;61478;50.820;4.330;2023-05-17T03:58:33;21.08;;;8.10;;
35522;SDS011;61478;50.820;4.330;2023-05-17T04:01:00;19.85;;;8.35;;
35522;SDS011;61478;50.820;4.330;2023-05-17T04:03:26;21.77;;;7.75;;
35522;SDS011;61478;50.820;4.330;2023-05-17T04:05:52;20.65;;;8.20;;
35522;SDS011;61478;50.820;4.330;2023-05-17T04:08:19;20.38;;;7.70;;
35522;SDS011;61478;50.820;4.330;2023-05-17T04:10:52;15.93;;;7.03;;
35522;SDS011;61478;50.820;4.330;2023-05-17T04:13:18;18.48;;;7.75;;
35522;SDS011;61478;50.820;4.330;2023-05-17T04:15:45;21.35;;;7.75;;
35522;SDS011;61478;50.820;4.330;2023-05-17T04:18:11;20.65;;;8.48;;
35522;SDS011;61478;50.820;4.330;2023-05-17T04:20:37;17.67;;;8.02;;
35522;SDS011;61478;50.820;4.330;2023-05-17T04:23:03;21.75;;;7.60;;
35522;SDS011;61478;50.820;4.330;2023-05-17T04:25:29;28.23;;;8.95;;
35522;SDS011;61478;50.820;4.330;2023-05-17T04:27:55;22.08;;;7.53;;
35522;SDS011;61478;50.820;4.330;2023-05-17T04:30:24;17.95;;;7.80;;
35522;SDS011;61478;50.820;4.330;2023-05-17T04:32:50;18.45;;;8.57;;
35522;SDS011;61478;50.820;4.330;2023-05-17T04:35:16;23.65;;;8.88;;
35522;SDS011;61478;50.820;4.330;2023-05-17T04:37:42;26.08;;;8.27;;
35522;SDS011;61478;50.820;4.330;2023-05-17T04:40:08;18.50;;;8.05;;
35522;SDS011;61478;50.820;4.330;2023-05-17T04:42:35;19.58;;;8.60;;
35522;SDS011;61478;50.820;4.330;2023-05-17T04:45:01;32.45;;;10.57;;
35522;SDS011;61478;50.820;4.330;2023-05-17T04:47:44;16.52;;;7.43;;
35522;SDS011;61478;50.820;4.330;2023-05-17T04:50:11;25.23;;;9.27;;
35522;SDS011;61478;50.820;4.330;2023-05-17T04:52:37;26.65;;;9.10;;
35522;SDS011;61478;50.820;4.330;2023-05-17T04:55:03;17.85;;;7.80;;
35522;SDS011;61478;50.820;4.330;2023-05-17T04:57:33;25.95;;;9.32;;
35522;SDS011;61478;50.820;4.330;2023-05-17T04:59:59;27.40;;;10.05;;
35522;SDS011;61478;50.820;4.330;2023-05-17T05:02:26;27.45;;;9.98;;
35522;SDS011;61478;50.820;4.330;2023-05-17T05:04:52;29.58;;;10.02;;
35522;SDS011;61478;50.820;4.330;2023-05-17T05:07:18;27.77;;;10.23;;
35522;SDS011;61478;50.820;4.330;2023-05-17T05:09:44;18.98;;;9.02;;
35522;SDS011;61478;50.820;4.330;2023-05-17T05:12:10;30.13;;;10.43;;
35522;SDS011;61478;50.820;4.330;2023-05-17T05:14:36;26.92;;;10.20;;
35522;SDS011;61478;50.820;4.330;2023-05-17T05:17:03;22.73;;;9.00;;
35522;SDS011;61478;50.820;4.330;2023-05-17T05:19:29;21.73;;;8.98;;
35522;SDS011;61478;50.820;4.330;2023-05-17T05:21:55;31.58;;;10.77;;
35522;SDS011;61478;50.820;4.330;2023-05-17T05:24:21;26.15;;;9.50;;
35522;SDS011;61478;50.820;4.330;2023-05-17T05:26:48;21.83;;;9.38;;
35522;SDS011;61478;50.820;4.330;2023-05-17T05:29:14;29.48;;;9.88;;
35522;SDS011;61478;50.820;4.330;2023-05-17T05:31:40;33.70;;;10.32;;
35522;SDS011;61478;50.820;4.330;2023-05-17T05:34:06;26.33;;;10.18;;
35522;SDS011;61478;50.820;4.330;2023-05-17T05:36:32;27.63;;;10.45;;
35522;SDS011;61478;50.820;4.330;2023-05-17T05:39:00;27.80;;;10.18;;
35522;SDS011;61478;50.820;4.330;2023-05-17T05:41:27;27.52;;;10.32;;
35522;SDS011;61478;50.820;4.330;2023-05-17T05:43:53;29.02;;;10.80;;
35522;SDS011;61478;50.820;4.330;2023-05-17T05:46:37;34.17;;;10.93;;
35522;SDS011;61478;50.820;4.330;2023-05-17T05:49:03;27.42;;;9.82;;
35522;SDS011;61478;50.820;4.330;2023-05-17T05:51:32;25.95;;;10.23;;
35522;SDS011;61478;50.820;4.330;2023-05-17T05:53:59;27.45;;;10.13;;
35522;SDS011;61478;50.820;4.330;2023-05-17T05:56:25;45.92;;;11.75;;
35522;SDS011;61478;50.820;4.330;2023-05-17T05:58:53;34.22;;;10.68;;
35522;SDS011;61478;50.820;4.330;2023-05-17T06:01:19;27.30;;;10.90;;
35522;SDS011;61478;50.820;4.330;2023-05-17T06:03:46;30.90;;;11.18;;
35522;SDS011;61478;50.820;4.330;2023-05-17T06:06:12;35.40;;;10.93;;
35522;SDS011;61478;50.820;4.330;2023-05-17T06:08:40;31.35;;;11.30;;
35522;SDS011;61478;50.820;4.330;2023-05-17T06:11:09;28.60;;;10.80;;
35522;SDS011;61478;50.820;4.330;2023-05-17T06:13:36;32.88;;;10.15;;
35522;SDS011;61478;50.820;4.330;2023-05-17T06:16:02;30.65;;;10.95;;
35522;SDS011;61478;50.820;4.330;2023-05-17T06:18:54;25.63;;;10.15;;
35522;SDS011;61478;50.820;4.330;2023-05-17T06:21:20;33.30;;;10.68;;
35522;SDS011;61478;50.820;4.330;2023-05-17T06:23:46;30.45;;;9.38;;
35522;SDS011;61478;50.820;4.330;2023-05-17T06:26:12;21.20;;;10.02;;
35522;SDS011;61478;50.820;4.330;2023-05-17T06:28:38;27.83;;;11.00;;
35522;SDS011;61478;50.820;4.330;2023-05-17T06:31:31;26.15;;;11.27;;
35522;SDS011;61478;50.820;4.330;2023-05-17T06:34:06;37.60;;;9.90;;
35522;SDS011;61478;50.820;4.330;2023-05-17T06:36:34;32.28;;;10.40;;
35522;SDS011;61478;50.820;4.330;2023-05-17T06:39:00;43.13;;;9.90;;
35522;SDS011;61478;50.820;4.330;2023-05-17T06:41:26;39.08;;;10.30;;
35522;SDS011;61478;50.820;4.330;2023-05-17T06:43:56;25.92;;;8.73;;
35522;SDS011;61478;50.820;4.330;2023-05-17T06:46:22;26.83;;;9.55;;
35522;SDS011;61478;50.820;4.330;2023-05-17T06:48:50;28.27;;;9.45;;
35522;SDS011;61478;50.820;4.330;2023-05-17T06:51:20;28.30;;;8.88;;
35522;SDS011;61478;50.820;4.330;2023-05-17T06:53:46;27.67;;;8.75;;
35522;SDS011;61478;50.820;4.330;2023-05-17T06:56:12;26.23;;;8.02;;
35522;SDS011;61478;50.820;4.330;2023-05-17T06:58:56;29.25;;;9.30;;
35522;SDS011;61478;50.820;4.330;2023-05-17T07:01:23;30.20;;;10.10;;
35522;SDS011;61478;50.820;4.330;2023-05-17T07:03:49;24.73;;;9.20;;
35522;SDS011;61478;50.820;4.330;2023-05-17T07:06:25;27.50;;;8.48;;
35522;SDS011;61478;50.820;4.330;2023-05-17T07:08:52;21.80;;;8.00;;
35522;SDS011;61478;50.820;4.330;2023-05-17T07:11:19;20.15;;;7.50;;
35522;SDS011;61478;50.820;4.330;2023-05-17T07:13:45;20.83;;;7.20;;
35522;SDS011;61478;50.820;4.330;2023-05-17T07:16:14;26.75;;;7.97;;
35522;SDS011;61478;50.820;4.330;2023-05-17T07:21:36;25.05;;;8.02;;
35522;SDS011;61478;50.820;4.330;2023-05-17T07:24:19;26.15;;;7.38;;
35522;SDS011;61478;50.820;4.330;2023-05-17T07:26:45;20.98;;;6.50;;
35522;SDS011;61478;50.820;4.330;2023-05-17T07:29:14;15.82;;;5.63;;
35522;SDS011;61478;50.820;4.330;2023-05-17T07:31:49;20.25;;;5.53;;
35522;SDS011;61478;50.820;4.330;2023-05-17T07:34:15;19.98;;;6.00;;
35522;SDS011;61478;50.820;4.330;2023-05-17T07:36:47;19.55;;;6.35;;
35522;SDS011;61478;50.820;4.330;2023-05-17T07:39:34;20.13;;;6.07;;
35522;SDS011;61478;50.820;4.330;2023-05-17T07:42:22;18.58;;;6.22;;
35522;SDS011;61478;50.820;4.330;2023-05-17T07:44:57;21.45;;;6.07;;
35522;SDS011;61478;50.820;4.330;2023-05-17T07:47:44;16.13;;;5.95;;
35522;SDS011;61478;50.820;4.330;2023-05-17T07:50:33;17.83;;;6.50;;
35522;SDS011;61478;50.820;4.330;2023-05-17T07:53:00;19.35;;;7.53;;
35522;SDS011;61478;50.820;4.330;2023-05-17T07:55:46;21.48;;;7.47;;
35522;SDS011;61478;50.820;4.330;2023-05-17T07:58:16;29.05;;;8.68;;
35522;SDS011;61478;50.820;4.330;2023-05-17T08:01:14;28.13;;;7.90;;
35522;SDS011;61478;50.820;4.330;2023-05-17T08:03:40;17.38;;;7.53;;
35522;SDS011;61478;50.820;4.330;2023-05-17T08:06:14;20.80;;;7.50;;
35522;SDS011;61478;50.820;4.330;2023-05-17T08:09:05;22.45;;;7.93;;
35522;SDS011;61478;50.820;4.330;2023-05-17T08:11:31;23.35;;;7.15;;
35522;SDS011;61478;50.820;4.330;2023-05-17T08:14:07;26.35;;;7.30;;
35522;SDS011;61478;50.820;4.330;2023-05-17T08:16:47;20.75;;;7.57;;
35522;SDS011;61478;50.820;4.330;2023-05-17T08:19:20;17.40;;;7.65;;
35522;SDS011;61478;50.820;4.330;2023-05-17T08:21:53;23.00;;;7.10;;
35522;SDS011;61478;50.820;4.330;2023-05-17T08:24:23;19.55;;;6.47;;
35522;SDS011;61478;50.820;4.330;2023-05-17T08:26:58;17.05;;;6.30;;
35522;SDS011;61478;50.820;4.330;2023-05-17T08:29:28;18.45;;;5.88;;
35522;SDS011;61478;50.820;4.330;2023-05-17T08:35:56;16.63;;;5.70;;
35522;SDS011;61478;50.820;4.330;2023-05-17T08:38:41;18.20;;;6.03;;
35522;SDS011;61478;50.820;4.330;2023-05-17T08:41:10;17.30;;;6.13;;
35522;SDS011;61478;50.820;4.330;2023-05-17T08:43:54;21.17;;;5.85;;
35522;SDS011;61478;50.820;4.330;2023-05-17T08:46:30;19.05;;;6.18;;
35522;SDS011;61478;50.820;4.330;2023-05-17T08:49:26;24.30;;;5.82;;
35522;SDS011;61478;50.820;4.330;2023-05-17T08:52:05;18.60;;;6.40;;
35522;SDS011;61478;50.820;4.330;2023-05-17T08:54:37;22.08;;;6.25;;
35522;SDS011;61478;50.820;4.330;2023-05-17T08:57:04;17.35;;;5.75;;
35522;SDS011;61478;50.820;4.330;2023-05-17T08:59:43;16.92;;;5.45;;
35522;SDS011;61478;50.820;4.330;2023-05-17T09:02:14;11.88;;;5.00;;
35522;SDS011;61478;50.820;4.330;2023-05-17T09:04:44;16.75;;;5.32;;
35522;SDS011;61478;50.820;4.330;2023-05-17T09:07:22;15.43;;;5.32;;
35522;SDS011;61478;50.820;4.330;2023-05-17T09:09:56;18.55;;;5.55;;
35522;SDS011;61478;50.820;4.330;2023-05-17T09:12:37;17.13;;;4.47;;
35522;SDS011;61478;50.820;4.330;2023-05-17T09:15:27;15.25;;;4.55;;
35522;SDS011;61478;50.820;4.330;2023-05-17T09:18:05;17.35;;;4.65;;
35522;SDS011;61478;50.820;4.330;2023-05-17T09:20:38;13.25;;;4.32;;
35522;SDS011;61478;50.820;4.330;2023-05-17T09:23:37;18.15;;;4.78;;
35522;SDS011;61478;50.820;4.330;2023-05-17T09:26:12;18.05;;;4.55;;
35522;SDS011;61478;50.820;4.330;2023-05-17T09:28:43;22.08;;;4.70;;
35522;SDS011;61478;50.820;4.330;2023-05-17T09:31:15;17.25;;;4.97;;
35522;SDS011;61478;50.820;4.330;2023-05-17T09:33:45;13.95;;;4.20;;
35522;SDS011;61478;50.820;4.330;2023-05-17T09:36:15;13.98;;;4.75;;
35522;SDS011;61478;50.820;4.330;2023-05-17T09:39:00;11.20;;;4.55;;
35522;SDS011;61478;50.820;4.330;2023-05-17T09:41:42;11.95;;;4.00;;
35522;SDS011;61478;50.820;4.330;2023-05-17T09:44:12;10.75;;;3.50;;
35522;SDS011;61478;50.820;4.330;2023-05-17T09:46:53;11.57;;;3.72;;
35522;SDS011;61478;50.820;4.330;2023-05-17T09:49:25;11.27;;;4.05;;
35522;SDS011;61478;50.820;4.330;2023-05-17T09:51:57;11.68;;;3.75;;
35522;SDS011;61478;50.820;4.330;2023-05-17T09:54:23;9.57;;;3.17;;
35522;SDS011;61478;50.820;4.330;2023-05-17T09:56:53;15.43;;;4.10;;
35522;SDS011;61478;50.820;4.330;2023-05-17T09:59:36;15.30;;;4.05;;
35522;SDS011;61478;50.820;4.330;2023-05-17T10:02:06;8.77;;;3.38;;
35522;SDS011;61478;50.820;4.330;2023-05-17T10:04:58;11.88;;;3.55;;
35522;SDS011;61478;50.820;4.330;2023-05-17T10:07:36;9.73;;;3.38;;
35522;SDS011;61478;50.820;4.330;2023-05-17T10:10:03;14.82;;;3.42;;
35522;SDS011;61478;50.820;4.330;2023-05-17T10:12:31;11.27;;;3.53;;
35522;SDS011;61478;50.820;4.330;2023-05-17T10:15:05;14.52;;;4.25;;
35522;SDS011;61478;50.820;4.330;2023-05-17T10:17:32;9.65;;;3.45;;
35522;SDS011;61478;50.820;4.330;2023-05-17T10:19:59;8.40;;;3.50;;
35522;SDS011;61478;50.820;4.330;2023-05-17T10:22:37;11.15;;;3.63;;
35522;SDS011;61478;50.820;4.330;2023-05-17T10:25:04;11.63;;;3.42;;
35522;SDS011;61478;50.820;4.330;2023-05-17T10:27:32;12.63;;;3.33;;
35522;SDS011;61478;50.820;4.330;2023-05-17T10:29:58;12.35;;;4.00;;
35522;SDS011;61478;50.820;4.330;2023-05-17T10:32:25;10.90;;;3.85;;
35522;SDS011;61478;50.820;4.330;2023-05-17T10:34:53;13.93;;;4.25;;
35522;SDS011;61478;50.820;4.330;2023-05-17T10:37:19;15.77;;;3.95;;
35522;SDS011;61478;50.820;4.330;2023-05-17T10:39:47;12.57;;;3.92;;
35522;SDS011;61478;50.820;4.330;2023-05-17T10:42:15;15.10;;;3.97;;
35522;SDS011;61478;50.820;4.330;2023-05-17T10:44:43;19.08;;;4.03;;
35522;SDS011;61478;50.820;4.330;2023-05-17T10:47:15;20.33;;;4.10;;
35522;SDS011;61478;50.820;4.330;2023-05-17T10:49:51;11.82;;;4.05;;
35522;SDS011;61478;50.820;4.330;2023-05-17T10:52:24;14.15;;;4.15;;
35522;SDS011;61478;50.820;4.330;2023-05-17T10:55:03;10.55;;;3.15;;
35522;SDS011;61478;50.820;4.330;2023-05-17T11:08:31;14.27;;;4.05;;
35522;SDS011;61478;50.820;4.330;2023-05-17T11:11:11;14.25;;;3.80;;
35522;SDS011;61478;50.820;4.330;2023-05-17T11:13:45;16.10;;;3.55;;
35522;SDS011;61478;50.820;4.330;2023-05-17T11:16:20;11.02;;;3.97;;
35522;SDS011;61478;50.820;4.330;2023-05-17T11:18:51;13.13;;;3.42;;
35522;SDS011;61478;50.820;4.330;2023-05-17T11:21:20;17.77;;;4.13;;
35522;SDS011;61478;50.820;4.330;2023-05-17T11:23:47;14.02;;;3.17;;
35522;SDS011;61478;50.820;4.330;2023-05-17T11:26:23;14.82;;;3.20;;
35522;SDS011;61478;50.820;4.330;2023-05-17T11:29:07;12.45;;;3.10;;
35522;SDS011;61478;50.820;4.330;2023-05-17T11:31:55;9.82;;;2.65;;
35522;SDS011;61478;50.820;4.330;2023-05-17T11:34:22;18.70;;;3.33;;
35522;SDS011;61478;50.820;4.330;2023-05-17T11:36:54;16.30;;;3.60;;
35522;SDS011;61478;50.820;4.330;2023-05-17T11:39:22;8.70;;;2.63;;
35522;SDS011;61478;50.820;4.330;2023-05-17T11:41:50;15.65;;;3.80;;
35522;SDS011;61478;50.820;4.330;2023-05-17T11:44:35;10.52;;;3.05;;
35522;SDS011;61478;50.820;4.330;2023-05-17T11:47:07;18.58;;;3.47;;
35522;SDS011;61478;50.820;4.330;2023-05-17T11:49:36;8.40;;;2.63;;
35522;SDS011;61478;50.820;4.330;2023-05-17T11:52:05;11.68;;;3.63;;
35522;SDS011;61478;50.820;4.330;2023-05-17T11:54:36;10.60;;;3.00;;
35522;SDS011;61478;50.820;4.330;2023-05-17T11:57:11;13.68;;;2.70;;
35522;SDS011;61478;50.820;4.330;2023-05-17T11:59:41;20.27;;;3.10;;
35522;SDS011;61478;50.820;4.330;2023-05-17T12:02:07;10.82;;;2.72;;
35522;SDS011;61478;50.820;4.330;2023-05-17T12:10:20;7.70;;;2.47;;
35522;SDS011;61478;50.820;4.330;2023-05-17T12:13:13;14.68;;;3.15;;
35522;SDS011;61478;50.820;4.330;2023-05-17T12:15:55;12.52;;;2.90;;
35522;SDS011;61478;50.820;4.330;2023-05-17T12:19:03;8.17;;;2.63;;
35522;SDS011;61478;50.820;4.330;2023-05-17T12:28:16;9.98;;;2.83;;
35522;SDS011;61478;50.820;4.330;2023-05-17T12:31:13;15.90;;;2.70;;
35522;SDS011;61478;50.820;4.330;2023-05-17T12:34:04;11.35;;;3.00;;
35522;SDS011;61478;50.820;4.330;2023-05-17T12:36:34;6.88;;;2.85;;
35522;SDS011;61478;50.820;4.330;2023-05-17T12:39:21;11.20;;;2.60;;
35522;SDS011;61478;50.820;4.330;2023-05-17T12:41:55;20.58;;;2.30;;
35522;SDS011;61478;50.820;4.330;2023-05-17T12:44:44;9.05;;;3.13;;
35522;SDS011;61478;50.820;4.330;2023-05-17T12:47:14;8.98;;;2.17;;
35522;SDS011;61478;50.820;4.330;2023-05-17T12:49:52;9.85;;;2.70;;
35522;SDS011;61478;50.820;4.330;2023-05-17T12:52:19;12.95;;;2.67;;
35522;SDS011;61478;50.820;4.330;2023-05-17T12:58:27;9.25;;;3.97;;
35522;SDS011;61478;50.820;4.330;2023-05-17T13:00:59;5.97;;;2.85;;
35522;SDS011;61478;50.820;4.330;2023-05-17T13:03:27;14.32;;;3.97;;
35522;SDS011;61478;50.820;4.330;2023-05-17T13:06:07;7.97;;;3.72;;
35522;SDS011;61478;50.820;4.330;2023-05-17T13:08:56;8.73;;;3.17;;
35522;SDS011;61478;50.820;4.330;2023-05-17T13:11:29;7.40;;;2.20;;
35522;SDS011;61478;50.820;4.330;2023-05-17T13:14:06;7.57;;;2.58;;
35522;SDS011;61478;50.820;4.330;2023-05-17T13:16:37;9.15;;;3.28;;
35522;SDS011;61478;50.820;4.330;2023-05-17T13:19:37;6.45;;;2.58;;
35522;SDS011;61478;50.820;4.330;2023-05-17T13:22:19;9.30;;;2.97;;
35522;SDS011;61478;50.820;4.330;2023-05-17T13:24:48;10.00;;;3.15;;
35522;SDS011;61478;50.820;4.330;2023-05-17T13:27:15;11.50;;;2.30;;
35522;SDS011;61478;50.820;4.330;2023-05-17T13:29:42;11.93;;;2.28;;
35522;SDS011;61478;50.820;4.330;2023-05-17T13:32:16;14.80;;;2.35;;
35522;SDS011;61478;50.820;4.330;2023-05-17T13:35:05;10.82;;;2.33;;
35522;SDS011;61478;50.820;4.330;2023-05-17T13:37:38;12.35;;;2.22;;
35522;SDS011;61478;50.820;4.330;2023-05-17T13:40:11;9.90;;;2.22;;
35522;SDS011;61478;50.820;4.330;2023-05-17T13:42:37;8.80;;;2.13;;
35522;SDS011;61478;50.820;4.330;2023-05-17T13:45:12;11.73;;;2.45;;
35522;SDS011;61478;50.820;4.330;2023-05-17T13:47:41;7.80;;;2.17;;
35522;SDS011;61478;50.820;4.330;2023-05-17T13:50:08;8.27;;;2.53;;
35522;SDS011;61478;50.820;4.330;2023-05-17T13:52:41;41.80;;;5.05;;
35522;SDS011;61478;50.820;4.330;2023-05-17T13:55:08;23.27;;;3.63;;
35522;SDS011;61478;50.820;4.330;2023-05-17T13:57:34;8.48;;;2.15;;
35522;SDS011;61478;50.820;4.330;2023-05-17T14:00:01;12.77;;;2.20;;
35522;SDS011;61478;50.820;4.330;2023-05-17T14:02:27;7.60;;;2.55;;
35522;SDS011;61478;50.820;4.330;2023-05-17T14:04:56;18.90;;;2.85;;
35522;SDS011;61478;50.820;4.330;2023-05-17T14:07:34;17.73;;;3.20;;
35522;SDS011;61478;50.820;4.330;2023-05-17T14:10:08;21.23;;;3.38;;
35522;SDS011;61478;50.820;4.330;2023-05-17T14:12:37;16.45;;;2.13;;
35522;SDS011;61478;50.820;4.330;2023-05-17T14:15:06;9.07;;;2.53;;
35522;SDS011;61478;50.820;4.330;2023-05-17T14:17:36;8.07;;;2.65;;
35522;SDS011;61478;50.820;4.330;2023-05-17T14:20:03;8.43;;;2.42;;
35522;SDS011;61478;50.820;4.330;2023-05-17T14:22:30;8.82;;;2.70;;
35522;SDS011;61478;50.820;4.330;2023-05-17T14:24:56;8.45;;;2.58;;
35522;SDS011;61478;50.820;4.330;2023-05-17T14:27:22;8.68;;;2.30;;
35522;SDS011;61478;50.820;4.330;2023-05-17T14:29:48;10.07;;;3.03;;
35522;SDS011;61478;50.820;4.330;2023-05-17T14:32:18;8.05;;;2.00;;
35522;SDS011;61478;50.820;4.330;2023-05-17T14:34:44;7.38;;;2.15;;
35522;SDS011;61478;50.820;4.330;2023-05-17T14:37:10;9.57;;;2.17;;
35522;SDS011;61478;50.820;4.330;2023-05-17T14:39:38;11.60;;;3.13;;
35522;SDS011;61478;50.820;4.330;2023-05-17T14:42:07;8.40;;;2.83;;
35522;SDS011;61478;50.820;4.330;2023-05-17T14:44:33;9.25;;;2.35;;
35522;SDS011;61478;50.820;4.330;2023-05-17T14:47:03;11.77;;;2.45;;
35522;SDS011;61478;50.820;4.330;2023-05-17T14:49:36;9.63;;;2.75;;
35522;SDS011;61478;50.820;4.330;2023-05-17T14:52:08;10.60;;;2.63;;
35522;SDS011;61478;50.820;4.330;2023-05-17T14:54:39;12.25;;;2.83;;
35522;SDS011;61478;50.820;4.330;2023-05-17T14:57:30;7.90;;;2.33;;
35522;SDS011;61478;50.820;4.330;2023-05-17T15:00:17;9.10;;;2.97;;
35522;SDS011;61478;50.820;4.330;2023-05-17T15:02:46;9.88;;;2.55;;
35522;SDS011;61478;50.820;4.330;2023-05-17T15:05:13;8.25;;;2.35;;
35522;SDS011;61478;50.820;4.330;2023-05-17T15:07:39;12.85;;;2.80;;
35522;SDS011;61478;50.820;4.330;2023-05-17T15:10:13;7.88;;;2.25;;
35522;SDS011;61478;50.820;4.330;2023-05-17T15:12:44;11.35;;;2.67;;
35522;SDS011;61478;50.820;4.330;2023-05-17T15:15:19;11.40;;;2.88;;
35522;SDS011;61478;50.820;4.330;2023-05-17T15:17:46;9.77;;;2.55;;
35522;SDS011;61478;50.820;4.330;2023-05-17T15:20:16;10.50;;;2.85;;
35522;SDS011;61478;50.820;4.330;2023-05-17T15:22:47;10.63;;;2.80;;
35522;SDS011;61478;50.820;4.330;2023-05-17T15:25:13;7.80;;;2.40;;
35522;SDS011;61478;50.820;4.330;2023-05-17T15:27:51;8.95;;;2.65;;
35522;SDS011;61478;50.820;4.330;2023-05-17T15:30:23;12.20;;;2.83;;
35522;SDS011;61478;50.820;4.330;2023-05-17T15:32:52;8.38;;;2.80;;
35522;SDS011;61478;50.820;4.330;2023-05-17T15:35:22;5.97;;;2.47;;
35522;SDS011;61478;50.820;4.330;2023-05-17T15:37:52;10.38;;;2.33;;
35522;SDS011;61478;50.820;4.330;2023-05-17T15:40:19;7.40;;;2.33;;
35522;SDS011;61478;50.820;4.330;2023-05-17T15:42:58;8.52;;;2.92;;
35522;SDS011;61478;50.820;4.330;2023-05-17T15:45:25;9.90;;;2.58;;
35522;SDS011;61478;50.820;4.330;2023-05-17T15:47:51;11.05;;;2.75;;
35522;SDS011;61478;50.820;4.330;2023-05-17T15:50:19;6.88;;;2.42;;
35522;SDS011;61478;50.820;4.330;2023-05-17T15:52:45;8.65;;;2.63;;